sensor_id;sensor_type;location;lat;lon;timestamp;P1;durP1;ratioP1;P2;durP2;ratioP2
80891;SDS011;70343;51.530;5.050;2023-08-20T00:00:15;7.82;;;2.90;;
80891;SDS011;70343;51.530;5.050;2023-08-20T00:02:41;8.43;;;2.47;;
80891;SDS011;70343;51.530;5.050;2023-08-20T00:05:08;7.03;;;2.80;;
80891;SDS011;70343;51.530;5.050;2023-08-20T00:07:35;7.47;;;2.50;;
80891;SDS011;70343;51.530;5.050;2023-08-20T00:10:01;6.32;;;2.33;;
80891;SDS011;70343;51.530;5.050;2023-08-20T00:14:55;6.38;;;2.38;;
80891;SDS011;70343;51.530;5.050;2023-08-20T00:17:24;8.05;;;2.80;;
80891;SDS011;70343;51.530;5.050;2023-08-20T00:22:23;5.90;;;2.35;;
80891;SDS011;70343;51.530;5.050;2023-08-20T00:24:51;7.07;;;2.25;;
80891;SDS011;70343;51.530;5.050;2023-08-20T00:27:18;4.57;;;2.67;;
80891;SDS011;70343;51.530;5.050;2023-08-20T00:29:43;7.43;;;3.30;;
80891;SDS011;70343;51.530;5.050;2023-08-20T00:32:09;6.57;;;2.28;;
80891;SDS011;70343;51.530;5.050;2023-08-20T00:34:34;6.40;;;2.30;;
80891;SDS011;70343;51.530;5.050;2023-08-20T00:37:00;6.88;;;2.38;;
80891;SDS011;70343;51.530;5.050;2023-08-20T00:39:27;7.15;;;2.97;;
80891;SDS011;70343;51.530;5.050;2023-08-20T00:41:54;6.85;;;2.72;;
80891;SDS011;70343;51.530;5.050;2023-08-20T00:44:19;8.65;;;2.25;;
80891;SDS011;70343;51.530;5.050;2023-08-20T00:46:45;6.50;;;2.60;;
80891;SDS011;70343;51.530;5.050;2023-08-20T00:49:11;5.25;;;2.67;;
80891;SDS011;70343;51.530;5.050;2023-08-20T00:51:37;4.40;;;2.63;;
80891;SDS011;70343;51.530;5.050;2023-08-20T00:54:03;8.88;;;2.50;;
80891;SDS011;70343;51.530;5.050;2023-08-20T00:56:29;6.35;;;2.35;;
80891;SDS011;70343;51.530;5.050;2023-08-20T00:58:55;7.90;;;2.50;;
80891;SDS011;70343;51.530;5.050;2023-08-20T01:01:24;5.53;;;2.58;;
80891;SDS011;70343;51.530;5.050;2023-08-20T01:03:49;5.10;;;2.50;;
80891;SDS011;70343;51.530;5.050;2023-08-20T01:07:00;5.53;;;2.28;;
80891;SDS011;70343;51.530;5.050;2023-08-20T01:09:34;6.43;;;2.28;;
80891;SDS011;70343;51.530;5.050;2023-08-20T01:12:20;4.70;;;2.10;;
80891;SDS011;70343;51.530;5.050;2023-08-20T01:14:47;11.82;;;3.00;;
80891;SDS011;70343;51.530;5.050;2023-08-20T01:17:13;7.10;;;3.20;;
80891;SDS011;70343;51.530;5.050;2023-08-20T01:19:39;5.35;;;2.60;;
80891;SDS011;70343;51.530;5.050;2023-08-20T01:24:38;5.07;;;2.20;;
80891;SDS011;70343;51.530;5.050;2023-08-20T01:27:38;6.80;;;2.72;;
80891;SDS011;70343;51.530;5.050;2023-08-20T01:30:10;4.22;;;2.38;;
80891;SDS011;70343;51.530;5.050;2023-08-20T01:32:38;5.80;;;2.60;;
80891;SDS011;70343;51.530;5.050;2023-08-20T01:35:08;5.75;;;2.60;;
80891;SDS011;70343;51.530;5.050;2023-08-20T01:37:37;7.00;;;3.10;;
80891;SDS011;70343;51.530;5.050;2023-08-20T01:40:03;7.80;;;3.10;;
80891;SDS011;70343;51.530;5.050;2023-08-20T01:42:30;8.13;;;3.08;;
80891;SDS011;70343;51.530;5.050;2023-08-20T01:44:56;5.40;;;2.42;;
80891;SDS011;70343;51.530;5.050;2023-08-20T01:47:21;6.60;;;3.40;;
80891;SDS011;70343;51.530;5.050;2023-08-20T01:49:47;5.63;;;3.25;;
80891;SDS011;70343;51.530;5.050;2023-08-20T01:52:12;6.50;;;3.35;;
80891;SDS011;70343;51.530;5.050;2023-08-20T01:54:38;5.65;;;2.85;;
80891;SDS011;70343;51.530;5.050;2023-08-20T01:57:03;7.53;;;3.30;;
80891;SDS011;70343;51.530;5.050;2023-08-20T01:59:29;6.50;;;3.35;;
80891;SDS011;70343;51.530;5.050;2023-08-20T02:01:54;6.13;;;3.10;;
80891;SDS011;70343;51.530;5.050;2023-08-20T02:04:20;6.80;;;3.55;;
80891;SDS011;70343;51.530;5.050;2023-08-20T02:06:45;10.30;;;4.32;;
80891;SDS011;70343;51.530;5.050;2023-08-20T02:09:12;8.32;;;3.85;;
80891;SDS011;70343;51.530;5.050;2023-08-20T02:11:38;8.80;;;3.92;;
80891;SDS011;70343;51.530;5.050;2023-08-20T02:14:03;8.30;;;3.95;;
80891;SDS011;70343;51.530;5.050;2023-08-20T02:16:29;7.90;;;4.63;;
80891;SDS011;70343;51.530;5.050;2023-08-20T02:18:54;8.10;;;4.40;;
80891;SDS011;70343;51.530;5.050;2023-08-20T02:21:20;6.95;;;3.63;;
80891;SDS011;70343;51.530;5.050;2023-08-20T02:23:46;7.75;;;3.60;;
80891;SDS011;70343;51.530;5.050;2023-08-20T02:26:12;6.43;;;3.78;;
80891;SDS011;70343;51.530;5.050;2023-08-20T02:28:37;8.98;;;4.47;;
80891;SDS011;70343;51.530;5.050;2023-08-20T02:31:03;7.75;;;4.30;;
80891;SDS011;70343;51.530;5.050;2023-08-20T02:33:30;6.72;;;3.85;;
80891;SDS011;70343;51.530;5.050;2023-08-20T02:36:00;6.18;;;4.00;;
80891;SDS011;70343;51.530;5.050;2023-08-20T02:38:26;8.75;;;4.65;;
80891;SDS011;70343;51.530;5.050;2023-08-20T02:40:52;6.82;;;4.50;;
80891;SDS011;70343;51.530;5.050;2023-08-20T02:43:18;9.05;;;4.45;;
80891;SDS011;70343;51.530;5.050;2023-08-20T02:45:43;5.25;;;3.75;;
80891;SDS011;70343;51.530;5.050;2023-08-20T02:48:09;6.85;;;3.58;;
80891;SDS011;70343;51.530;5.050;2023-08-20T02:50:35;9.32;;;4.63;;
80891;SDS011;70343;51.530;5.050;2023-08-20T02:53:01;8.30;;;4.10;;
80891;SDS011;70343;51.530;5.050;2023-08-20T02:55:26;8.00;;;4.15;;
80891;SDS011;70343;51.530;5.050;2023-08-20T02:57:52;6.63;;;4.28;;
80891;SDS011;70343;51.530;5.050;2023-08-20T03:00:17;6.20;;;3.70;;
80891;SDS011;70343;51.530;5.050;2023-08-20T03:02:43;8.43;;;4.32;;
80891;SDS011;70343;51.530;5.050;2023-08-20T03:05:09;7.82;;;4.03;;
80891;SDS011;70343;51.530;5.050;2023-08-20T03:07:35;6.60;;;3.83;;
80891;SDS011;70343;51.530;5.050;2023-08-20T03:10:00;8.70;;;4.22;;
80891;SDS011;70343;51.530;5.050;2023-08-20T03:12:27;7.93;;;4.38;;
80891;SDS011;70343;51.530;5.050;2023-08-20T03:14:53;8.57;;;4.22;;
80891;SDS011;70343;51.530;5.050;2023-08-20T03:17:19;4.63;;;3.38;;
80891;SDS011;70343;51.530;5.050;2023-08-20T03:19:57;7.93;;;3.92;;
80891;SDS011;70343;51.530;5.050;2023-08-20T03:22:24;7.07;;;4.18;;
80891;SDS011;70343;51.530;5.050;2023-08-20T03:24:51;6.03;;;4.05;;
80891;SDS011;70343;51.530;5.050;2023-08-20T03:27:17;5.32;;;4.32;;
80891;SDS011;70343;51.530;5.050;2023-08-20T03:29:43;7.20;;;4.32;;
80891;SDS011;70343;51.530;5.050;2023-08-20T03:32:09;8.70;;;4.45;;
80891;SDS011;70343;51.530;5.050;2023-08-20T03:34:35;7.30;;;4.40;;
80891;SDS011;70343;51.530;5.050;2023-08-20T03:37:01;7.47;;;4.43;;
80891;SDS011;70343;51.530;5.050;2023-08-20T03:39:28;8.65;;;4.47;;
80891;SDS011;70343;51.530;5.050;2023-08-20T03:41:53;4.95;;;4.32;;
80891;SDS011;70343;51.530;5.050;2023-08-20T03:44:19;6.03;;;4.13;;
80891;SDS011;70343;51.530;5.050;2023-08-20T03:46:44;7.65;;;4.05;;
80891;SDS011;70343;51.530;5.050;2023-08-20T03:49:11;8.60;;;4.72;;
80891;SDS011;70343;51.530;5.050;2023-08-20T03:51:37;11.27;;;4.95;;
80891;SDS011;70343;51.530;5.050;2023-08-20T03:54:02;6.95;;;5.03;;
80891;SDS011;70343;51.530;5.050;2023-08-20T03:56:28;13.50;;;4.50;;
80891;SDS011;70343;51.530;5.050;2023-08-20T03:58:54;8.57;;;4.53;;
80891;SDS011;70343;51.530;5.050;2023-08-20T04:01:20;8.38;;;4.85;;
80891;SDS011;70343;51.530;5.050;2023-08-20T04:03:46;9.77;;;4.78;;
80891;SDS011;70343;51.530;5.050;2023-08-20T04:06:12;7.38;;;4.75;;
80891;SDS011;70343;51.530;5.050;2023-08-20T04:08:37;6.18;;;4.82;;
80891;SDS011;70343;51.530;5.050;2023-08-20T04:11:03;10.98;;;4.43;;
80891;SDS011;70343;51.530;5.050;2023-08-20T04:13:29;9.43;;;4.78;;
80891;SDS011;70343;51.530;5.050;2023-08-20T04:15:54;7.05;;;4.32;;
80891;SDS011;70343;51.530;5.050;2023-08-20T04:18:20;10.13;;;4.88;;
80891;SDS011;70343;51.530;5.050;2023-08-20T04:20:46;7.10;;;4.63;;
80891;SDS011;70343;51.530;5.050;2023-08-20T04:23:11;8.95;;;4.75;;
80891;SDS011;70343;51.530;5.050;2023-08-20T04:25:37;8.82;;;4.75;;
80891;SDS011;70343;51.530;5.050;2023-08-20T04:28:02;9.15;;;4.65;;
80891;SDS011;70343;51.530;5.050;2023-08-20T04:30:29;9.15;;;5.28;;
80891;SDS011;70343;51.530;5.050;2023-08-20T04:32:54;9.15;;;5.35;;
80891;SDS011;70343;51.530;5.050;2023-08-20T04:35:20;9.55;;;5.20;;
80891;SDS011;70343;51.530;5.050;2023-08-20T04:37:47;8.85;;;5.03;;
80891;SDS011;70343;51.530;5.050;2023-08-20T04:40:12;6.03;;;5.40;;
80891;SDS011;70343;51.530;5.050;2023-08-20T04:42:38;7.85;;;5.07;;
80891;SDS011;70343;51.530;5.050;2023-08-20T04:45:04;8.95;;;5.38;;
80891;SDS011;70343;51.530;5.050;2023-08-20T04:47:31;10.25;;;6.05;;
80891;SDS011;70343;51.530;5.050;2023-08-20T04:49:56;11.88;;;5.65;;
80891;SDS011;70343;51.530;5.050;2023-08-20T04:52:22;10.98;;;5.63;;
80891;SDS011;70343;51.530;5.050;2023-08-20T04:54:49;7.72;;;5.43;;
80891;SDS011;70343;51.530;5.050;2023-08-20T04:57:15;11.82;;;5.60;;
80891;SDS011;70343;51.530;5.050;2023-08-20T04:59:41;11.07;;;5.57;;
80891;SDS011;70343;51.530;5.050;2023-08-20T05:02:19;8.07;;;4.97;;
80891;SDS011;70343;51.530;5.050;2023-08-20T05:04:52;10.55;;;5.80;;
80891;SDS011;70343;51.530;5.050;2023-08-20T05:07:18;6.10;;;4.90;;
80891;SDS011;70343;51.530;5.050;2023-08-20T05:09:44;10.40;;;5.78;;
80891;SDS011;70343;51.530;5.050;2023-08-20T05:12:09;10.40;;;5.70;;
80891;SDS011;70343;51.530;5.050;2023-08-20T05:14:35;8.10;;;5.50;;
80891;SDS011;70343;51.530;5.050;2023-08-20T05:17:01;9.18;;;5.40;;
80891;SDS011;70343;51.530;5.050;2023-08-20T05:19:26;11.90;;;5.75;;
80891;SDS011;70343;51.530;5.050;2023-08-20T05:21:52;10.63;;;5.00;;
80891;SDS011;70343;51.530;5.050;2023-08-20T05:24:21;10.90;;;5.93;;
80891;SDS011;70343;51.530;5.050;2023-08-20T05:26:49;11.68;;;5.95;;
80891;SDS011;70343;51.530;5.050;2023-08-20T05:29:28;9.73;;;5.80;;
80891;SDS011;70343;51.530;5.050;2023-08-20T05:31:54;8.77;;;5.13;;
80891;SDS011;70343;51.530;5.050;2023-08-20T05:34:19;12.10;;;5.68;;
80891;SDS011;70343;51.530;5.050;2023-08-20T05:36:45;10.43;;;6.10;;
80891;SDS011;70343;51.530;5.050;2023-08-20T05:39:11;13.10;;;6.00;;
80891;SDS011;70343;51.530;5.050;2023-08-20T05:41:36;9.18;;;5.85;;
80891;SDS011;70343;51.530;5.050;2023-08-20T05:44:02;11.70;;;5.57;;
80891;SDS011;70343;51.530;5.050;2023-08-20T05:46:28;13.68;;;6.18;;
80891;SDS011;70343;51.530;5.050;2023-08-20T05:48:53;11.60;;;6.22;;
80891;SDS011;70343;51.530;5.050;2023-08-20T05:51:19;14.23;;;6.78;;
80891;SDS011;70343;51.530;5.050;2023-08-20T05:53:44;12.40;;;6.35;;
80891;SDS011;70343;51.530;5.050;2023-08-20T05:56:10;10.55;;;5.88;;
80891;SDS011;70343;51.530;5.050;2023-08-20T05:58:35;8.25;;;6.05;;
80891;SDS011;70343;51.530;5.050;2023-08-20T06:01:01;12.80;;;5.80;;
80891;SDS011;70343;51.530;5.050;2023-08-20T06:03:27;10.93;;;5.63;;
80891;SDS011;70343;51.530;5.050;2023-08-20T06:05:53;13.00;;;6.57;;
80891;SDS011;70343;51.530;5.050;2023-08-20T06:08:18;9.50;;;6.20;;
80891;SDS011;70343;51.530;5.050;2023-08-20T06:10:44;11.68;;;6.55;;
80891;SDS011;70343;51.530;5.050;2023-08-20T06:13:09;10.82;;;5.45;;
80891;SDS011;70343;51.530;5.050;2023-08-20T06:15:35;7.18;;;5.20;;
80891;SDS011;70343;51.530;5.050;2023-08-20T06:18:00;8.10;;;5.40;;
80891;SDS011;70343;51.530;5.050;2023-08-20T06:20:26;10.52;;;5.25;;
80891;SDS011;70343;51.530;5.050;2023-08-20T06:22:51;12.27;;;6.63;;
80891;SDS011;70343;51.530;5.050;2023-08-20T06:25:17;10.68;;;5.85;;
80891;SDS011;70343;51.530;5.050;2023-08-20T06:27:42;12.98;;;5.57;;
80891;SDS011;70343;51.530;5.050;2023-08-20T06:30:08;12.63;;;5.63;;
80891;SDS011;70343;51.530;5.050;2023-08-20T06:32:34;11.23;;;6.03;;
80891;SDS011;70343;51.530;5.050;2023-08-20T06:35:00;12.20;;;5.05;;
80891;SDS011;70343;51.530;5.050;2023-08-20T06:37:25;8.45;;;4.80;;
80891;SDS011;70343;51.530;5.050;2023-08-20T06:39:51;10.90;;;5.68;;
80891;SDS011;70343;51.530;5.050;2023-08-20T06:42:16;8.30;;;4.97;;
80891;SDS011;70343;51.530;5.050;2023-08-20T06:44:41;11.20;;;4.68;;
80891;SDS011;70343;51.530;5.050;2023-08-20T06:47:07;8.32;;;4.60;;
80891;SDS011;70343;51.530;5.050;2023-08-20T06:49:33;9.25;;;4.70;;
80891;SDS011;70343;51.530;5.050;2023-08-20T06:51:58;10.35;;;4.50;;
80891;SDS011;70343;51.530;5.050;2023-08-20T06:54:24;8.50;;;4.65;;
80891;SDS011;70343;51.530;5.050;2023-08-20T06:56:49;10.50;;;4.47;;
80891;SDS011;70343;51.530;5.050;2023-08-20T06:59:15;7.40;;;3.63;;
80891;SDS011;70343;51.530;5.050;2023-08-20T07:01:41;6.55;;;3.40;;
80891;SDS011;70343;51.530;5.050;2023-08-20T07:04:07;7.00;;;3.72;;
80891;SDS011;70343;51.530;5.050;2023-08-20T07:06:32;8.48;;;3.05;;
80891;SDS011;70343;51.530;5.050;2023-08-20T07:08:58;6.38;;;2.85;;
80891;SDS011;70343;51.530;5.050;2023-08-20T07:11:24;5.22;;;2.38;;
80891;SDS011;70343;51.530;5.050;2023-08-20T07:13:49;7.20;;;2.90;;
80891;SDS011;70343;51.530;5.050;2023-08-20T07:16:15;6.07;;;2.80;;
80891;SDS011;70343;51.530;5.050;2023-08-20T07:18:40;5.13;;;2.63;;
80891;SDS011;70343;51.530;5.050;2023-08-20T07:21:06;7.80;;;3.22;;
80891;SDS011;70343;51.530;5.050;2023-08-20T07:23:33;6.82;;;3.03;;
80891;SDS011;70343;51.530;5.050;2023-08-20T07:26:08;5.18;;;2.90;;
80891;SDS011;70343;51.530;5.050;2023-08-20T07:28:37;5.63;;;2.60;;
80891;SDS011;70343;51.530;5.050;2023-08-20T07:31:31;7.10;;;3.03;;
80891;SDS011;70343;51.530;5.050;2023-08-20T07:33:59;5.38;;;3.00;;
80891;SDS011;70343;51.530;5.050;2023-08-20T07:36:25;8.07;;;3.38;;
80891;SDS011;70343;51.530;5.050;2023-08-20T07:38:52;7.15;;;3.17;;
80891;SDS011;70343;51.530;5.050;2023-08-20T07:41:18;6.20;;;3.35;;
80891;SDS011;70343;51.530;5.050;2023-08-20T07:43:47;7.93;;;3.15;;
80891;SDS011;70343;51.530;5.050;2023-08-20T07:46:14;7.05;;;2.97;;
80891;SDS011;70343;51.530;5.050;2023-08-20T07:48:40;7.57;;;3.17;;
80891;SDS011;70343;51.530;5.050;2023-08-20T07:51:06;9.73;;;4.00;;
80891;SDS011;70343;51.530;5.050;2023-08-20T07:53:32;6.47;;;3.28;;
80891;SDS011;70343;51.530;5.050;2023-08-20T07:55:58;5.75;;;3.58;;
80891;SDS011;70343;51.530;5.050;2023-08-20T07:58:24;7.00;;;2.63;;
80891;SDS011;70343;51.530;5.050;2023-08-20T08:00:50;4.15;;;1.95;;
80891;SDS011;70343;51.530;5.050;2023-08-20T08:03:15;7.20;;;2.17;;
80891;SDS011;70343;51.530;5.050;2023-08-20T08:05:45;5.93;;;2.30;;
80891;SDS011;70343;51.530;5.050;2023-08-20T08:08:12;4.65;;;1.90;;
80891;SDS011;70343;51.530;5.050;2023-08-20T08:10:38;8.05;;;2.08;;
80891;SDS011;70343;51.530;5.050;2023-08-20T08:13:03;6.78;;;2.20;;
80891;SDS011;70343;51.530;5.050;2023-08-20T08:15:29;15.70;;;1.95;;
80891;SDS011;70343;51.530;5.050;2023-08-20T08:17:54;5.82;;;1.90;;
80891;SDS011;70343;51.530;5.050;2023-08-20T08:20:20;6.30;;;2.20;;
80891;SDS011;70343;51.530;5.050;2023-08-20T08:22:45;5.82;;;2.08;;
80891;SDS011;70343;51.530;5.050;2023-08-20T08:25:11;3.70;;;1.65;;
80891;SDS011;70343;51.530;5.050;2023-08-20T08:27:36;4.80;;;1.90;;
80891;SDS011;70343;51.530;5.050;2023-08-20T08:30:02;5.18;;;1.67;;
80891;SDS011;70343;51.530;5.050;2023-08-20T08:32:29;3.47;;;1.58;;
80891;SDS011;70343;51.530;5.050;2023-08-20T08:34:55;7.45;;;1.77;;
80891;SDS011;70343;51.530;5.050;2023-08-20T08:37:20;6.18;;;1.20;;
80891;SDS011;70343;51.530;5.050;2023-08-20T08:39:45;3.03;;;1.20;;
80891;SDS011;70343;51.530;5.050;2023-08-20T08:42:11;3.25;;;1.33;;
80891;SDS011;70343;51.530;5.050;2023-08-20T08:44:37;3.53;;;1.45;;
80891;SDS011;70343;51.530;5.050;2023-08-20T08:47:06;5.75;;;1.70;;
80891;SDS011;70343;51.530;5.050;2023-08-20T08:49:35;3.42;;;1.52;;
80891;SDS011;70343;51.530;5.050;2023-08-20T08:52:01;4.32;;;1.63;;
80891;SDS011;70343;51.530;5.050;2023-08-20T08:54:28;4.38;;;1.50;;
80891;SDS011;70343;51.530;5.050;2023-08-20T08:56:54;2.63;;;1.35;;
80891;SDS011;70343;51.530;5.050;2023-08-20T08:59:21;4.18;;;1.30;;
80891;SDS011;70343;51.530;5.050;2023-08-20T09:01:46;5.53;;;1.75;;
80891;SDS011;70343;51.530;5.050;2023-08-20T09:04:12;2.08;;;1.20;;
80891;SDS011;70343;51.530;5.050;2023-08-20T09:06:48;5.50;;;1.95;;
80891;SDS011;70343;51.530;5.050;2023-08-20T09:09:16;2.80;;;1.70;;
80891;SDS011;70343;51.530;5.050;2023-08-20T09:11:42;3.45;;;1.67;;
80891;SDS011;70343;51.530;5.050;2023-08-20T09:14:08;5.80;;;3.45;;
80891;SDS011;70343;51.530;5.050;2023-08-20T09:16:45;3.67;;;1.45;;
80891;SDS011;70343;51.530;5.050;2023-08-20T09:19:10;3.58;;;1.13;;
80891;SDS011;70343;51.530;5.050;2023-08-20T09:21:36;5.05;;;1.60;;
80891;SDS011;70343;51.530;5.050;2023-08-20T09:24:01;3.53;;;1.40;;
80891;SDS011;70343;51.530;5.050;2023-08-20T09:26:27;3.17;;;1.08;;
80891;SDS011;70343;51.530;5.050;2023-08-20T09:28:54;3.08;;;1.30;;
80891;SDS011;70343;51.530;5.050;2023-08-20T09:31:22;3.60;;;1.10;;
80891;SDS011;70343;51.530;5.050;2023-08-20T09:34:02;4.75;;;2.05;;
80891;SDS011;70343;51.530;5.050;2023-08-20T09:36:32;2.42;;;1.25;;
80891;SDS011;70343;51.530;5.050;2023-08-20T09:39:00;4.55;;;1.70;;
80891;SDS011;70343;51.530;5.050;2023-08-20T09:41:26;4.30;;;1.70;;
80891;SDS011;70343;51.530;5.050;2023-08-20T09:43:56;4.65;;;1.88;;
80891;SDS011;70343;51.530;5.050;2023-08-20T09:46:23;7.03;;;2.38;;
80891;SDS011;70343;51.530;5.050;2023-08-20T09:48:56;3.15;;;1.85;;
80891;SDS011;70343;51.530;5.050;2023-08-20T09:51:26;3.38;;;2.20;;
80891;SDS011;70343;51.530;5.050;2023-08-20T09:54:00;4.07;;;2.28;;
80891;SDS011;70343;51.530;5.050;2023-08-20T09:56:36;5.70;;;2.38;;
80891;SDS011;70343;51.530;5.050;2023-08-20T09:59:04;5.15;;;1.98;;
80891;SDS011;70343;51.530;5.050;2023-08-20T10:01:30;4.95;;;2.03;;
80891;SDS011;70343;51.530;5.050;2023-08-20T10:03:55;4.10;;;2.40;;
80891;SDS011;70343;51.530;5.050;2023-08-20T10:06:21;4.95;;;2.08;;
80891;SDS011;70343;51.530;5.050;2023-08-20T10:08:48;4.25;;;1.65;;
80891;SDS011;70343;51.530;5.050;2023-08-20T10:11:16;4.10;;;1.63;;
80891;SDS011;70343;51.530;5.050;2023-08-20T10:13:42;2.15;;;1.23;;
80891;SDS011;70343;51.530;5.050;2023-08-20T10:16:08;4.88;;;1.30;;
80891;SDS011;70343;51.530;5.050;2023-08-20T10:18:36;3.38;;;0.95;;
80891;SDS011;70343;51.530;5.050;2023-08-20T10:21:02;2.92;;;1.40;;
80891;SDS011;70343;51.530;5.050;2023-08-20T10:23:30;2.53;;;1.38;;
80891;SDS011;70343;51.530;5.050;2023-08-20T10:25:55;3.88;;;0.98;;
80891;SDS011;70343;51.530;5.050;2023-08-20T10:28:34;4.43;;;1.10;;
80891;SDS011;70343;51.530;5.050;2023-08-20T10:31:03;4.35;;;0.90;;
80891;SDS011;70343;51.530;5.050;2023-08-20T10:33:30;3.38;;;1.10;;
80891;SDS011;70343;51.530;5.050;2023-08-20T10:35:56;4.18;;;1.45;;
80891;SDS011;70343;51.530;5.050;2023-08-20T10:38:22;3.35;;;1.00;;
80891;SDS011;70343;51.530;5.050;2023-08-20T10:40:57;1.95;;;0.88;;
80891;SDS011;70343;51.530;5.050;2023-08-20T10:43:33;2.65;;;0.80;;
80891;SDS011;70343;51.530;5.050;2023-08-20T10:46:02;1.65;;;0.90;;
80891;SDS011;70343;51.530;5.050;2023-08-20T10:48:29;2.67;;;1.00;;
80891;SDS011;70343;51.530;5.050;2023-08-20T10:50:56;3.88;;;1.08;;
80891;SDS011;70343;51.530;5.050;2023-08-20T10:53:22;3.33;;;1.00;;
80891;SDS011;70343;51.530;5.050;2023-08-20T10:55:48;4.10;;;1.13;;
80891;SDS011;70343;51.530;5.050;2023-08-20T10:58:14;5.60;;;1.15;;
80891;SDS011;70343;51.530;5.050;2023-08-20T11:00:41;2.80;;;0.82;;
80891;SDS011;70343;51.530;5.050;2023-08-20T11:03:07;2.97;;;0.82;;
80891;SDS011;70343;51.530;5.050;2023-08-20T11:05:33;2.03;;;0.90;;
80891;SDS011;70343;51.530;5.050;2023-08-20T11:07:59;1.85;;;0.60;;
80891;SDS011;70343;51.530;5.050;2023-08-20T11:10:25;3.42;;;1.17;;
80891;SDS011;70343;51.530;5.050;2023-08-20T11:12:51;3.03;;;0.95;;
80891;SDS011;70343;51.530;5.050;2023-08-20T11:15:17;3.78;;;0.80;;
80891;SDS011;70343;51.530;5.050;2023-08-20T11:17:45;3.97;;;1.13;;
80891;SDS011;70343;51.530;5.050;2023-08-20T11:20:12;3.35;;;0.90;;
80891;SDS011;70343;51.530;5.050;2023-08-20T11:22:39;4.47;;;1.33;;
80891;SDS011;70343;51.530;5.050;2023-08-20T11:25:06;3.83;;;1.10;;
80891;SDS011;70343;51.530;5.050;2023-08-20T11:27:36;3.00;;;0.95;;
80891;SDS011;70343;51.530;5.050;2023-08-20T11:30:05;2.63;;;0.88;;
80891;SDS011;70343;51.530;5.050;2023-08-20T11:32:32;5.00;;;1.10;;
80891;SDS011;70343;51.530;5.050;2023-08-20T11:34:58;3.03;;;0.70;;
80891;SDS011;70343;51.530;5.050;2023-08-20T11:37:24;2.42;;;0.68;;
80891;SDS011;70343;51.530;5.050;2023-08-20T11:39:50;2.30;;;0.82;;
80891;SDS011;70343;51.530;5.050;2023-08-20T11:42:16;2.25;;;0.70;;
80891;SDS011;70343;51.530;5.050;2023-08-20T11:44:43;1.67;;;0.68;;
80891;SDS011;70343;51.530;5.050;2023-08-20T11:47:16;3.13;;;0.93;;
80891;SDS011;70343;51.530;5.050;2023-08-20T11:49:42;3.17;;;1.52;;
80891;SDS011;70343;51.530;5.050;2023-08-20T11:52:08;1.80;;;0.82;;
80891;SDS011;70343;51.530;5.050;2023-08-20T11:54:34;5.20;;;1.05;;
80891;SDS011;70343;51.530;5.050;2023-08-20T11:57:03;2.55;;;0.80;;
80891;SDS011;70343;51.530;5.050;2023-08-20T11:59:29;2.00;;;0.60;;
80891;SDS011;70343;51.530;5.050;2023-08-20T12:01:56;1.58;;;0.70;;
80891;SDS011;70343;51.530;5.050;2023-08-20T12:04:24;1.95;;;0.70;;
80891;SDS011;70343;51.530;5.050;2023-08-20T12:09:35;3.97;;;0.90;;
80891;SDS011;70343;51.530;5.050;2023-08-20T12:12:01;3.47;;;0.80;;
80891;SDS011;70343;51.530;5.050;2023-08-20T12:14:27;1.92;;;0.70;;
80891;SDS011;70343;51.530;5.050;2023-08-20T12:16:53;4.30;;;0.90;;
80891;SDS011;70343;51.530;5.050;2023-08-20T12:19:19;2.22;;;0.63;;
80891;SDS011;70343;51.530;5.050;2023-08-20T12:21:45;2.67;;;0.80;;
80891;SDS011;70343;51.530;5.050;2023-08-20T12:24:11;2.28;;;0.60;;
80891;SDS011;70343;51.530;5.050;2023-08-20T12:26:37;1.27;;;0.70;;
80891;SDS011;70343;51.530;5.050;2023-08-20T12:29:03;3.33;;;0.63;;
80891;SDS011;70343;51.530;5.050;2023-08-20T12:31:29;2.55;;;0.70;;
80891;SDS011;70343;51.530;5.050;2023-08-20T12:33:54;4.22;;;0.80;;
80891;SDS011;70343;51.530;5.050;2023-08-20T12:36:20;3.42;;;0.93;;
80891;SDS011;70343;51.530;5.050;2023-08-20T12:38:45;2.95;;;0.73;;
80891;SDS011;70343;51.530;5.050;2023-08-20T12:41:11;2.63;;;0.80;;
80891;SDS011;70343;51.530;5.050;2023-08-20T12:43:36;4.72;;;1.10;;
80891;SDS011;70343;51.530;5.050;2023-08-20T12:46:02;1.50;;;0.60;;
80891;SDS011;70343;51.530;5.050;2023-08-20T12:48:28;3.08;;;0.80;;
80891;SDS011;70343;51.530;5.050;2023-08-20T12:50:55;3.47;;;1.20;;
80891;SDS011;70343;51.530;5.050;2023-08-20T12:53:20;4.25;;;0.88;;
80891;SDS011;70343;51.530;5.050;2023-08-20T12:55:46;3.28;;;1.33;;
80891;SDS011;70343;51.530;5.050;2023-08-20T12:58:12;2.45;;;0.95;;
80891;SDS011;70343;51.530;5.050;2023-08-20T13:00:37;2.35;;;0.73;;
80891;SDS011;70343;51.530;5.050;2023-08-20T13:03:03;2.13;;;0.88;;
80891;SDS011;70343;51.530;5.050;2023-08-20T13:05:29;2.20;;;0.70;;
80891;SDS011;70343;51.530;5.050;2023-08-20T13:07:54;2.38;;;0.68;;
80891;SDS011;70343;51.530;5.050;2023-08-20T13:10:20;4.25;;;0.82;;
80891;SDS011;70343;51.530;5.050;2023-08-20T13:12:52;3.30;;;0.77;;
80891;SDS011;70343;51.530;5.050;2023-08-20T13:15:19;2.78;;;0.70;;
80891;SDS011;70343;51.530;5.050;2023-08-20T13:17:47;3.72;;;0.63;;
80891;SDS011;70343;51.530;5.050;2023-08-20T13:20:14;2.90;;;0.88;;
80891;SDS011;70343;51.530;5.050;2023-08-20T13:22:40;3.47;;;0.80;;
80891;SDS011;70343;51.530;5.050;2023-08-20T13:25:06;2.60;;;0.70;;
80891;SDS011;70343;51.530;5.050;2023-08-20T13:27:32;3.03;;;0.77;;
80891;SDS011;70343;51.530;5.050;2023-08-20T13:29:58;3.50;;;0.73;;
80891;SDS011;70343;51.530;5.050;2023-08-20T13:32:23;2.47;;;0.98;;
80891;SDS011;70343;51.530;5.050;2023-08-20T13:34:52;5.25;;;1.23;;
80891;SDS011;70343;51.530;5.050;2023-08-20T13:37:17;4.90;;;0.82;;
80891;SDS011;70343;51.530;5.050;2023-08-20T13:39:43;2.65;;;0.70;;
80891;SDS011;70343;51.530;5.050;2023-08-20T13:42:08;1.25;;;0.70;;
80891;SDS011;70343;51.530;5.050;2023-08-20T13:44:34;3.88;;;0.90;;
80891;SDS011;70343;51.530;5.050;2023-08-20T13:46:59;1.48;;;0.93;;
80891;SDS011;70343;51.530;5.050;2023-08-20T13:49:25;2.38;;;0.90;;
80891;SDS011;70343;51.530;5.050;2023-08-20T13:51:50;3.35;;;0.70;;
80891;SDS011;70343;51.530;5.050;2023-08-20T13:54:16;3.28;;;0.80;;
80891;SDS011;70343;51.530;5.050;2023-08-20T13:56:41;4.53;;;0.85;;
80891;SDS011;70343;51.530;5.050;2023-08-20T13:59:09;5.05;;;1.10;;
80891;SDS011;70343;51.530;5.050;2023-08-20T14:01:35;2.58;;;0.90;;
80891;SDS011;70343;51.530;5.050;2023-08-20T14:04:01;2.22;;;0.73;;
80891;SDS011;70343;51.530;5.050;2023-08-20T14:06:27;2.60;;;0.80;;
80891;SDS011;70343;51.530;5.050;2023-08-20T14:08:53;2.97;;;0.70;;
80891;SDS011;70343;51.530;5.050;2023-08-20T14:11:18;4.07;;;0.80;;
80891;SDS011;70343;51.530;5.050;2023-08-20T14:13:43;3.38;;;0.80;;
80891;SDS011;70343;51.530;5.050;2023-08-20T14:16:09;6.05;;;1.10;;
80891;SDS011;70343;51.530;5.050;2023-08-20T14:18:34;3.40;;;1.02;;
80891;SDS011;70343;51.530;5.050;2023-08-20T14:21:00;3.40;;;0.90;;
80891;SDS011;70343;51.530;5.050;2023-08-20T14:23:25;2.92;;;0.90;;
80891;SDS011;70343;51.530;5.050;2023-08-20T14:25:51;3.38;;;0.85;;
80891;SDS011;70343;51.530;5.050;2023-08-20T14:28:19;4.10;;;0.80;;
80891;SDS011;70343;51.530;5.050;2023-08-20T14:30:45;3.25;;;1.00;;
80891;SDS011;70343;51.530;5.050;2023-08-20T14:33:11;2.38;;;0.63;;
80891;SDS011;70343;51.530;5.050;2023-08-20T14:35:39;3.28;;;0.73;;
80891;SDS011;70343;51.530;5.050;2023-08-20T14:38:04;3.33;;;1.10;;
80891;SDS011;70343;51.530;5.050;2023-08-20T14:40:30;4.15;;;0.88;;
80891;SDS011;70343;51.530;5.050;2023-08-20T14:42:56;1.77;;;0.50;;
80891;SDS011;70343;51.530;5.050;2023-08-20T14:45:22;4.00;;;1.00;;
80891;SDS011;70343;51.530;5.050;2023-08-20T14:47:47;2.05;;;0.80;;
80891;SDS011;70343;51.530;5.050;2023-08-20T14:50:13;3.50;;;0.90;;
80891;SDS011;70343;51.530;5.050;2023-08-20T14:52:38;2.88;;;0.80;;